createdAt,value
2024-02-08T00:00:59.571Z,142.57
2024-02-08T00:02:14.315Z,147.80
2024-02-08T00:03:16.424Z,141.10
2024-02-08T00:04:18.530Z,138.98
2024-02-08T00:05:20.792Z,141.95
2024-02-08T00:06:23.241Z,154.77
2024-02-08T00:07:25.397Z,149.48
2024-02-08T00:08:27.393Z,142.52
2024-02-08T00:09:29.905Z,141.48
2024-02-08T00:10:32.570Z,140.85
2024-02-08T00:11:34.589Z,148.10
2024-02-08T00:12:39.091Z,147.15
2024-02-08T00:13:41.120Z,142.13
2024-02-08T00:14:43.426Z,154.65
2024-02-08T00:15:45.560Z,149.82
2024-02-08T00:16:47.496Z,140.65
2024-02-08T00:17:49.561Z,146.82
2024-02-08T00:18:51.961Z,138.57
2024-02-08T00:19:54.002Z,150.15
2024-02-08T00:20:56.029Z,141.82
2024-02-08T00:21:58.045Z,149.50
2024-02-08T00:23:00.985Z,152.20
2024-02-08T00:24:03.563Z,134.57
2024-02-08T00:25:05.971Z,141.45
2024-02-08T00:26:08.166Z,146.88
2024-02-08T00:27:10.579Z,144.20
2024-02-08T00:28:13.021Z,140.52
2024-02-08T00:29:15.289Z,146.65
2024-02-08T00:30:17.340Z,135.73
2024-02-08T00:31:20.677Z,145.30
2024-02-08T00:32:22.588Z,138.07
2024-02-08T00:33:25.706Z,143.25
2024-02-08T00:34:27.779Z,138.30
2024-02-08T00:35:30.278Z,138.45
2024-02-08T00:36:33.089Z,146.13
2024-02-08T00:38:38.211Z,135.13
2024-02-08T00:39:43.936Z,143.63
2024-02-08T00:40:47.638Z,142.57
2024-02-08T00:41:50.678Z,151.13
2024-02-08T00:42:54.484Z,138.77
2024-02-08T00:43:56.869Z,138.52
2024-02-08T00:44:58.914Z,140.50
2024-02-08T00:46:04.025Z,148.15
2024-02-08T00:47:06.868Z,142.52
2024-02-08T00:48:09.314Z,149.68
2024-02-08T00:49:11.488Z,142.77
2024-02-08T00:50:13.615Z,145.00
2024-02-08T00:51:16.406Z,148.95
2024-02-08T00:52:19.958Z,144.50
2024-02-08T00:53:23.480Z,137.95
2024-02-08T00:54:25.599Z,143.85
2024-02-08T00:55:27.870Z,136.70
2024-02-08T00:56:30.717Z,147.35
2024-02-08T00:57:34.384Z,145.77
2024-02-08T00:58:36.509Z,136.98
2024-02-08T00:59:39.379Z,139.50
2024-02-08T01:00:42.134Z,130.02
2024-02-08T01:01:44.210Z,148.98
2024-02-08T01:02:46.258Z,145.30
2024-02-08T01:03:48.353Z,141.90
2024-02-08T01:04:50.884Z,149.68
2024-02-08T01:05:54.875Z,155.80
2024-02-08T01:06:57.064Z,151.02
2024-02-08T01:07:59.016Z,163.77
2024-02-08T01:09:01.373Z,158.98
2024-02-08T01:10:03.757Z,158.40
2024-02-08T01:11:06.029Z,163.15
2024-02-08T01:12:08.290Z,148.13
2024-02-08T01:13:10.731Z,159.55
2024-02-08T01:14:13.992Z,148.88
2024-02-08T01:15:16.170Z,163.93
2024-02-08T01:16:18.150Z,148.02
2024-02-08T01:17:20.847Z,159.25
2024-02-08T01:18:22.834Z,152.43
2024-02-08T01:19:25.063Z,154.65
2024-02-08T01:20:29.367Z,154.77
2024-02-08T01:21:32.919Z,157.10
2024-02-08T01:22:35.177Z,150.55
2024-02-08T01:23:38.864Z,158.48
2024-02-08T01:24:40.853Z,157.15
2024-02-08T01:25:43.278Z,153.60
2024-02-08T01:26:48.777Z,164.40
2024-02-08T01:27:50.901Z,162.70
2024-02-08T01:28:55.912Z,167.38
2024-02-08T01:30:01.138Z,149.60
2024-02-08T01:31:04.721Z,166.38
2024-02-08T01:32:06.918Z,163.07
2024-02-08T01:33:12.739Z,162.45
2024-02-08T01:34:15.224Z,161.80
2024-02-08T01:35:23.518Z,155.82
2024-02-08T01:36:25.836Z,148.20
2024-02-08T01:37:27.832Z,148.82
2024-02-08T01:38:30.836Z,154.43
2024-02-08T01:39:32.815Z,153.93
2024-02-08T01:40:36.693Z,160.15
2024-02-08T01:41:38.724Z,156.80
2024-02-08T01:42:41.350Z,147.23
2024-02-08T01:43:43.317Z,153.30
2024-02-08T01:44:47.624Z,145.75
2024-02-08T01:45:50.986Z,154.15
2024-02-08T01:46:54.176Z,147.98
2024-02-08T01:48:58.236Z,131.73
2024-02-08T01:50:00.791Z,138.52
2024-02-08T01:51:05.957Z,134.30
2024-02-08T01:52:10.764Z,142.43
2024-02-08T01:53:16.837Z,129.35
2024-02-08T01:54:20.760Z,138.93
2024-02-08T01:55:23.293Z,132.27
2024-02-08T01:56:25.582Z,133.68
2024-02-08T01:57:27.740Z,140.80
2024-02-08T01:58:32.888Z,134.52
2024-02-08T01:59:35.517Z,135.93
2024-02-08T02:00:38.522Z,138.10
2024-02-08T02:01:48.200Z,136.13
2024-02-08T02:02:55.344Z,139.57
2024-02-08T02:03:58.766Z,132.82
2024-02-08T02:05:00.901Z,146.98
2024-02-08T02:06:09.551Z,129.90
2024-02-08T02:07:11.809Z,134.55
2024-02-08T02:08:19.751Z,136.20
2024-02-08T02:09:27.877Z,134.85
2024-02-08T02:10:33.696Z,128.73
2024-02-08T02:12:00.822Z,131.95
2024-02-08T02:13:06.187Z,135.75
2024-02-08T02:14:09.057Z,140.23
2024-02-08T02:15:11.621Z,142.43
2024-02-08T02:16:14.130Z,139.00
2024-02-08T02:18:20.213Z,132.20
2024-02-08T02:19:22.241Z,135.35
2024-02-08T02:20:25.881Z,136.30
2024-02-08T02:21:28.520Z,134.95
2024-02-08T02:22:33.473Z,135.55
2024-02-08T02:23:35.492Z,143.75
2024-02-08T02:24:44.719Z,151.95
2024-02-08T02:25:53.036Z,148.77
2024-02-08T02:26:59.063Z,136.80
2024-02-08T02:28:02.471Z,138.20
2024-02-08T02:29:05.678Z,144.07
2024-02-08T02:30:17.468Z,149.32
2024-02-08T02:31:23.406Z,138.43
2024-02-08T02:32:28.823Z,134.52
2024-02-08T02:33:30.950Z,131.63
2024-02-08T02:34:37.242Z,141.55
2024-02-08T02:35:39.333Z,134.88
2024-02-08T02:36:46.224Z,139.57
2024-02-08T02:37:51.088Z,136.15
2024-02-08T02:38:53.469Z,139.43
2024-02-08T02:39:55.586Z,139.10
2024-02-08T02:41:06.136Z,132.02
2024-02-08T02:42:08.329Z,126.82
2024-02-08T02:43:11.583Z,129.73
2024-02-08T02:45:23.239Z,123.13
2024-02-08T02:46:25.884Z,128.00
2024-02-08T02:47:28.273Z,141.43
2024-02-08T02:48:32.842Z,127.25
2024-02-08T02:49:39.230Z,124.15
2024-02-08T02:50:45.804Z,132.65
2024-02-08T02:51:53.639Z,130.88
2024-02-08T02:52:56.129Z,142.15
2024-02-08T02:53:59.406Z,137.60
2024-02-08T02:55:01.476Z,141.38
2024-02-08T02:56:04.049Z,146.65
2024-02-08T02:57:06.157Z,137.27
2024-02-08T02:58:08.261Z,134.15
2024-02-08T02:59:10.282Z,140.10
2024-02-08T03:00:22.851Z,133.48
2024-02-08T03:01:28.380Z,146.75
2024-02-08T03:02:30.532Z,141.55
2024-02-08T03:03:42.467Z,149.35
2024-02-08T03:04:45.151Z,154.88
2024-02-08T03:05:47.806Z,145.68
2024-02-08T03:06:54.555Z,144.07
2024-02-08T03:07:56.756Z,149.80
2024-02-08T03:08:59.440Z,159.35
2024-02-08T03:10:01.573Z,158.50
2024-02-08T03:11:04.707Z,141.23
2024-02-08T03:12:11.465Z,136.02
2024-02-08T03:13:13.994Z,144.48
2024-02-08T03:14:26.012Z,139.30
2024-02-08T03:15:27.998Z,132.20
2024-02-08T03:16:31.447Z,134.15
2024-02-08T03:17:34.273Z,134.25
2024-02-08T03:18:39.948Z,137.35
2024-02-08T03:19:42.034Z,125.70
2024-02-08T03:20:46.967Z,133.85
2024-02-08T03:21:50.834Z,125.13
2024-02-08T03:22:52.933Z,144.23
2024-02-08T03:23:58.358Z,139.15
2024-02-08T03:25:00.854Z,132.20
2024-02-08T03:26:06.319Z,127.35
2024-02-08T03:27:09.481Z,129.30
2024-02-08T03:28:12.597Z,144.95
2024-02-08T03:29:17.758Z,140.07
2024-02-08T03:30:24.458Z,126.53
2024-02-08T03:31:27.887Z,124.15
2024-02-08T03:32:31.971Z,126.18
2024-02-08T03:33:34.074Z,126.00
2024-02-08T03:34:36.986Z,130.80
2024-02-08T03:35:40.229Z,129.75
2024-02-08T03:36:42.202Z,125.85
2024-02-08T03:37:45.266Z,129.85
2024-02-08T03:38:48.746Z,132.57
2024-02-08T03:39:52.286Z,125.28
2024-02-08T03:40:54.242Z,123.03
2024-02-08T03:42:01.020Z,137.75
2024-02-08T03:43:03.449Z,123.70
2024-02-08T03:44:05.628Z,122.88
2024-02-08T03:45:08.455Z,135.20
2024-02-08T03:46:11.960Z,123.25
2024-02-08T03:47:14.347Z,127.93
2024-02-08T03:48:16.565Z,119.07
2024-02-08T03:49:18.718Z,119.50
2024-02-08T03:50:20.831Z,124.75
2024-02-08T03:51:24.091Z,119.78
2024-02-08T03:53:28.381Z,114.88
2024-02-08T03:54:34.513Z,115.53
2024-02-08T03:55:37.069Z,119.13
2024-02-08T03:56:39.162Z,124.38
2024-02-08T03:57:41.321Z,113.70
2024-02-08T03:58:43.413Z,126.38
2024-02-08T03:59:45.799Z,128.80
2024-02-08T04:00:48.364Z,120.28
2024-02-08T04:01:53.669Z,125.25
2024-02-08T04:02:59.636Z,128.27
2024-02-08T04:04:13.665Z,112.45
2024-02-08T04:05:28.031Z,125.70
2024-02-08T04:06:50.697Z,121.72
2024-02-08T04:08:00.886Z,112.47
2024-02-08T04:09:10.643Z,117.05
2024-02-08T04:10:32.505Z,127.07
2024-02-08T04:13:14.153Z,104.95
2024-02-08T04:14:35.017Z,118.28
2024-02-08T04:16:00.223Z,114.97
2024-02-08T04:17:21.103Z,105.00
2024-02-08T04:18:42.231Z,120.53
2024-02-08T04:20:02.672Z,118.15
2024-02-08T04:21:23.613Z,112.55
2024-02-08T04:22:44.904Z,116.00
2024-02-08T04:24:05.369Z,113.38
2024-02-08T04:25:26.098Z,120.90
2024-02-08T04:28:08.114Z,101.25
2024-02-08T04:29:28.636Z,116.13
2024-02-08T04:30:49.422Z,112.07
2024-02-08T04:32:10.004Z,114.70
2024-02-08T04:33:30.979Z,116.05
2024-02-08T04:34:51.868Z,119.78
2024-02-08T04:36:12.184Z,115.25
2024-02-08T04:37:33.269Z,107.93
2024-02-08T04:38:54.261Z,116.43
2024-02-08T04:40:14.920Z,112.68
2024-02-08T04:41:35.651Z,116.07
2024-02-08T04:42:57.265Z,116.18
2024-02-08T04:45:38.076Z,110.18
2024-02-08T04:46:58.973Z,110.55
2024-02-08T04:48:19.607Z,120.85
2024-02-08T04:49:40.245Z,107.88
2024-02-08T04:51:11.507Z,112.03
2024-02-08T04:52:32.496Z,118.38
2024-02-08T04:53:41.278Z,111.72
2024-02-08T04:54:43.891Z,116.40
2024-02-08T04:55:47.426Z,111.55
2024-02-08T04:56:49.941Z,115.82
2024-02-08T04:57:51.942Z,121.82
2024-02-08T04:59:17.140Z,122.63
2024-02-08T05:00:16.602Z,113.93
2024-02-08T05:01:18.871Z,126.32
2024-02-08T05:02:21.068Z,122.82
2024-02-08T05:03:24.302Z,124.80
2024-02-08T05:04:26.397Z,139.88
2024-02-08T05:05:28.487Z,122.13
2024-02-08T05:06:30.919Z,124.70
2024-02-08T05:07:34.087Z,128.05
2024-02-08T05:08:36.044Z,127.55
2024-02-08T05:09:41.608Z,121.80
2024-02-08T05:10:43.795Z,121.50
2024-02-08T05:11:46.772Z,126.68
2024-02-08T05:12:49.195Z,124.30
2024-02-08T05:13:51.851Z,122.65
2024-02-08T05:14:53.827Z,113.72
2024-02-08T05:15:56.188Z,118.32
2024-02-08T05:16:58.292Z,114.32
2024-02-08T05:18:00.569Z,115.82
2024-02-08T05:19:02.819Z,121.70
2024-02-08T05:20:06.419Z,120.80
2024-02-08T05:21:10.119Z,122.47
2024-02-08T05:22:12.742Z,112.47
2024-02-08T05:23:14.755Z,119.40
2024-02-08T05:24:17.089Z,115.93
2024-02-08T05:25:25.516Z,109.07
2024-02-08T05:26:33.597Z,110.88
2024-02-08T05:27:35.923Z,106.22
2024-02-08T05:28:39.196Z,109.95
2024-02-08T05:29:43.050Z,120.32
2024-02-08T05:30:45.280Z,111.82
2024-02-08T05:31:48.670Z,115.63
2024-02-08T05:32:53.214Z,125.45
2024-02-08T05:33:58.681Z,128.73
2024-02-08T05:35:03.783Z,111.80
2024-02-08T05:36:08.485Z,121.72
2024-02-08T05:37:11.136Z,110.43
2024-02-08T05:38:17.482Z,108.68
2024-02-08T05:39:26.935Z,112.20
2024-02-08T05:40:32.635Z,115.75
2024-02-08T05:41:35.124Z,113.55
2024-02-08T05:42:37.834Z,118.80
2024-02-08T05:43:49.481Z,113.80
2024-02-08T05:44:54.802Z,118.75
2024-02-08T05:45:57.227Z,112.90
2024-02-08T05:47:11.083Z,112.35
2024-02-08T05:48:18.815Z,117.72
2024-02-08T05:49:27.613Z,118.30
2024-02-08T05:50:32.984Z,118.47
2024-02-08T05:51:36.772Z,117.53
2024-02-08T05:52:40.138Z,118.07
2024-02-08T05:53:42.410Z,122.88
2024-02-08T05:54:48.103Z,110.22
2024-02-08T05:55:50.817Z,113.53
2024-02-08T05:56:58.734Z,111.63
2024-02-08T05:58:05.355Z,117.47
2024-02-08T05:59:09.983Z,122.90
2024-02-08T06:00:17.249Z,127.70
2024-02-08T06:01:22.993Z,113.93
2024-02-08T06:02:26.644Z,113.60
2024-02-08T06:03:29.395Z,106.47
2024-02-08T06:04:37.560Z,112.50
2024-02-08T06:05:42.155Z,110.28
2024-02-08T06:06:54.379Z,113.43
2024-02-08T06:07:59.502Z,114.10
2024-02-08T06:09:10.417Z,118.22
2024-02-08T06:10:16.432Z,111.72
2024-02-08T06:11:21.571Z,108.88
2024-02-08T06:12:45.687Z,97.72
2024-02-08T06:13:54.365Z,110.75
2024-02-08T06:15:16.075Z,113.72
2024-02-08T06:16:28.361Z,107.07
2024-02-08T06:17:39.442Z,108.00
2024-02-08T06:18:46.726Z,114.15
2024-02-08T06:19:54.999Z,117.07
2024-02-08T06:21:14.325Z,103.57
2024-02-08T06:22:24.629Z,102.07
2024-02-08T06:23:36.366Z,106.30
2024-02-08T06:24:48.743Z,104.38
2024-02-08T06:26:22.629Z,112.55
2024-02-08T06:27:27.456Z,103.47
2024-02-08T06:28:30.636Z,104.97
2024-02-08T06:30:50.064Z,109.75
2024-02-08T06:31:52.271Z,118.13
2024-02-08T06:33:18.267Z,110.55
2024-02-08T06:34:40.524Z,104.60
2024-02-08T06:35:46.554Z,104.68
2024-02-08T06:37:00.573Z,117.10
2024-02-08T06:38:10.182Z,112.75
2024-02-08T06:39:31.551Z,102.88
2024-02-08T06:40:49.347Z,103.68
2024-02-08T06:42:08.609Z,101.85
2024-02-08T06:43:22.614Z,100.28
2024-02-08T06:44:39.763Z,99.70
2024-02-08T06:45:49.796Z,95.05
2024-02-08T06:46:58.215Z,102.60
2024-02-08T06:48:00.502Z,99.05
2024-02-08T06:49:21.726Z,108.00
2024-02-08T06:50:42.738Z,106.20
2024-02-08T06:52:03.396Z,102.95
2024-02-08T06:53:24.086Z,102.38
2024-02-08T06:54:44.902Z,113.15
2024-02-08T06:56:05.355Z,107.43
2024-02-08T06:57:25.904Z,100.28
2024-02-08T06:58:46.675Z,105.57
2024-02-08T07:00:07.228Z,102.22
2024-02-08T07:01:28.481Z,96.85
2024-02-08T07:02:49.408Z,100.97
2024-02-08T07:04:10.195Z,102.22
2024-02-08T07:05:31.670Z,97.45
2024-02-08T07:06:52.978Z,103.93
2024-02-08T07:08:13.806Z,97.72
2024-02-08T07:09:34.461Z,91.40
2024-02-08T07:10:55.731Z,93.22
2024-02-08T07:12:16.579Z,98.40
2024-02-08T07:13:37.443Z,94.55
2024-02-08T07:14:58.314Z,102.95
2024-02-08T07:16:18.937Z,91.40
2024-02-08T07:17:39.617Z,101.85
2024-02-08T07:19:06.697Z,97.35
2024-02-08T07:20:29.756Z,107.28
2024-02-08T07:21:50.262Z,92.90
2024-02-08T07:23:10.987Z,94.72
2024-02-08T07:24:31.628Z,102.10
2024-02-08T07:25:52.234Z,90.82
2024-02-08T07:27:13.356Z,98.18
2024-02-08T07:28:34.106Z,98.22
2024-02-08T07:29:54.509Z,100.70
2024-02-08T07:31:15.321Z,103.65
2024-02-08T07:32:35.709Z,102.53
2024-02-08T07:34:09.848Z,101.28
2024-02-08T07:35:31.304Z,102.38
2024-02-08T07:36:51.826Z,100.85
2024-02-08T07:37:54.675Z,112.75
2024-02-08T07:39:15.477Z,108.93
2024-02-08T07:40:37.020Z,95.85
2024-02-08T07:41:41.780Z,120.10
2024-02-08T07:42:44.222Z,115.68
2024-02-08T07:43:56.203Z,122.32
2024-02-08T07:44:59.097Z,124.10
2024-02-08T07:47:14.038Z,122.95
2024-02-08T07:48:37.800Z,129.93
2024-02-08T07:49:46.558Z,142.75
2024-02-08T07:50:49.344Z,142.07
2024-02-08T07:51:52.029Z,144.35
2024-02-08T07:52:59.587Z,140.45
2024-02-08T07:54:01.811Z,144.15
2024-02-08T07:55:16.751Z,143.38
2024-02-08T07:56:25.355Z,136.73
2024-02-08T07:57:33.070Z,148.02
2024-02-08T07:58:38.348Z,148.52
2024-02-08T07:59:44.412Z,143.38
2024-02-08T08:00:46.614Z,143.18
2024-02-08T08:01:52.649Z,141.75
2024-02-08T08:02:56.345Z,139.88
2024-02-08T08:03:58.725Z,140.85
2024-02-08T08:05:03.313Z,134.57
2024-02-08T08:06:09.390Z,134.55
2024-02-08T08:07:11.633Z,130.85
2024-02-08T08:08:28.080Z,126.15
2024-02-08T08:09:30.389Z,111.50
2024-02-08T08:10:34.884Z,120.93
2024-02-08T08:11:41.221Z,113.05
2024-02-08T08:12:48.453Z,112.03
2024-02-08T08:13:56.365Z,116.85
2024-02-08T08:15:04.148Z,118.55
2024-02-08T08:16:24.913Z,115.95
2024-02-08T08:17:27.410Z,120.72
2024-02-08T08:18:31.512Z,126.18
2024-02-08T08:19:46.588Z,125.13
2024-02-08T08:20:58.222Z,113.22
2024-02-08T08:22:20.538Z,111.90
2024-02-08T08:23:27.519Z,109.68
2024-02-08T08:24:30.130Z,107.03
2024-02-08T08:25:46.731Z,118.55
2024-02-08T08:26:53.078Z,116.35
2024-02-08T08:28:11.718Z,123.50
2024-02-08T08:29:19.570Z,111.05
2024-02-08T08:30:32.926Z,119.10
2024-02-08T08:31:39.490Z,106.55
2024-02-08T08:32:41.610Z,113.88
2024-02-08T08:34:05.721Z,118.78
2024-02-08T08:35:26.670Z,111.15
2024-02-08T08:37:41.529Z,112.38
2024-02-08T08:38:46.081Z,111.63
2024-02-08T08:39:48.689Z,115.57
2024-02-08T08:41:02.356Z,100.65
2024-02-08T08:42:07.256Z,118.68
2024-02-08T08:43:21.638Z,109.20
2024-02-08T08:44:32.052Z,117.97
2024-02-08T08:45:34.307Z,109.00
2024-02-08T08:46:36.458Z,121.07
2024-02-08T08:47:39.432Z,117.47
2024-02-08T08:48:48.171Z,115.50
2024-02-08T08:49:52.696Z,119.45
2024-02-08T08:50:57.741Z,114.57
2024-02-08T08:52:06.021Z,121.07
2024-02-08T08:53:18.428Z,114.78
2024-02-08T08:54:30.848Z,106.68
2024-02-08T08:55:33.056Z,119.68
2024-02-08T08:56:35.987Z,130.18
2024-02-08T08:58:51.276Z,121.03
2024-02-08T08:59:54.360Z,113.88
2024-02-08T09:01:13.607Z,119.95
2024-02-08T09:02:16.306Z,131.57
2024-02-08T09:03:27.957Z,117.20
2024-02-08T09:04:34.937Z,120.88
2024-02-08T09:05:38.494Z,117.97
2024-02-08T09:06:44.253Z,116.47
2024-02-08T09:07:48.946Z,124.57
2024-02-08T09:08:56.984Z,117.70
2024-02-08T09:10:03.146Z,126.80
2024-02-08T09:11:05.898Z,130.50
2024-02-08T09:12:09.313Z,133.80
2024-02-08T09:13:17.627Z,128.20
2024-02-08T09:14:20.234Z,123.57
2024-02-08T09:15:28.653Z,127.85
2024-02-08T09:16:31.476Z,126.55
2024-02-08T09:17:53.544Z,122.53
2024-02-08T09:19:00.529Z,123.50
2024-02-08T09:20:21.809Z,112.68
2024-02-08T09:22:35.974Z,124.50
2024-02-08T09:23:39.777Z,123.38
2024-02-08T09:25:48.973Z,127.22
2024-02-08T09:26:53.835Z,123.60
2024-02-08T09:28:03.343Z,123.78
2024-02-08T09:29:10.867Z,118.35
2024-02-08T09:30:14.575Z,121.80
2024-02-08T09:31:18.755Z,132.43
2024-02-08T09:32:39.987Z,129.45
2024-02-08T09:34:02.875Z,110.30
2024-02-08T09:35:14.120Z,123.90
2024-02-08T09:36:17.445Z,130.93
2024-02-08T09:37:19.665Z,127.68
2024-02-08T09:38:21.666Z,122.25
2024-02-08T09:39:45.086Z,118.97
2024-02-08T09:40:52.552Z,117.88
2024-02-08T09:41:54.691Z,128.30
2024-02-08T09:43:13.511Z,124.65
2024-02-08T09:44:16.077Z,119.68
2024-02-08T09:45:34.550Z,126.05
2024-02-08T09:46:38.096Z,120.28
2024-02-08T09:47:54.165Z,125.60
2024-02-08T09:49:16.285Z,120.72
2024-02-08T09:50:51.584Z,121.75
2024-02-08T09:51:55.622Z,122.57
2024-02-08T09:53:08.859Z,122.80
2024-02-08T09:54:17.542Z,119.55
2024-02-08T09:55:21.439Z,134.15
2024-02-08T09:56:27.302Z,123.72
2024-02-08T09:57:42.411Z,123.07
2024-02-08T09:59:05.364Z,136.43
2024-02-08T10:00:46.533Z,123.65
2024-02-08T10:01:51.361Z,124.20
2024-02-08T10:03:05.170Z,119.38
2024-02-08T10:04:17.759Z,126.95
2024-02-08T10:05:21.283Z,125.30
2024-02-08T10:06:40.509Z,126.38
2024-02-08T10:07:51.413Z,119.40
2024-02-08T10:08:55.901Z,119.88
2024-02-08T10:10:05.173Z,124.15
2024-02-08T10:12:42.452Z,109.40
2024-02-08T10:14:04.064Z,113.63
2024-02-08T10:15:15.404Z,121.25
2024-02-08T10:16:22.060Z,124.63
2024-02-08T10:17:27.399Z,117.60
2024-02-08T10:18:40.434Z,132.02
2024-02-08T10:20:13.917Z,126.32
2024-02-08T10:21:19.371Z,122.60
2024-02-08T10:22:28.745Z,119.18
2024-02-08T10:23:37.505Z,119.82
2024-02-08T10:25:06.028Z,118.40
2024-02-08T10:26:28.352Z,122.22
2024-02-08T10:27:31.585Z,114.97
2024-02-08T10:28:34.487Z,129.88
2024-02-08T10:29:36.538Z,112.28
2024-02-08T10:30:42.906Z,133.65
2024-02-08T10:31:54.527Z,131.40
2024-02-08T10:32:56.548Z,122.57
2024-02-08T10:34:11.124Z,120.82
2024-02-08T10:35:21.935Z,127.75
2024-02-08T10:36:32.471Z,123.85
2024-02-08T10:37:50.797Z,133.45
2024-02-08T10:38:57.684Z,131.27
2024-02-08T10:40:01.936Z,133.88
2024-02-08T10:41:13.337Z,123.22
2024-02-08T10:42:16.186Z,125.38
2024-02-08T10:44:25.476Z,122.00
2024-02-08T10:45:34.172Z,121.80
2024-02-08T10:46:43.780Z,129.65
2024-02-08T10:47:49.649Z,113.03
2024-02-08T10:48:53.506Z,127.15
2024-02-08T10:49:56.360Z,143.45
2024-02-08T10:53:17.881Z,121.47
2024-02-08T10:54:24.849Z,122.22
2024-02-08T10:55:38.865Z,118.63
2024-02-08T10:56:45.340Z,121.90
2024-02-08T10:58:07.079Z,110.53
2024-02-08T10:59:11.468Z,130.15
2024-02-08T11:00:37.638Z,131.63
2024-02-08T11:01:51.952Z,123.75
2024-02-08T11:03:10.200Z,115.03
2024-02-08T11:04:19.647Z,133.23
2024-02-08T11:05:27.975Z,127.78
2024-02-08T11:06:32.841Z,130.32
2024-02-08T11:07:35.472Z,129.63
2024-02-08T11:08:52.352Z,135.40
2024-02-08T11:09:54.520Z,134.13
2024-02-08T11:11:05.163Z,138.75
2024-02-08T11:12:13.914Z,130.10
2024-02-08T11:13:30.899Z,133.52
2024-02-08T11:14:42.788Z,113.80
2024-02-08T11:15:51.111Z,125.50
2024-02-08T11:16:54.200Z,137.10
2024-02-08T11:17:57.136Z,135.15
2024-02-08T11:18:59.780Z,128.05
2024-02-08T11:20:05.430Z,135.75
2024-02-08T11:21:14.711Z,122.95
2024-02-08T11:22:36.542Z,139.90
2024-02-08T11:23:47.689Z,126.85
2024-02-08T11:24:59.895Z,136.55
2024-02-08T11:26:08.957Z,127.63
2024-02-08T11:27:15.001Z,132.43
2024-02-08T11:28:25.964Z,128.02
2024-02-08T11:29:30.276Z,124.15
2024-02-08T11:30:36.334Z,127.30
2024-02-08T11:31:43.452Z,136.20
2024-02-08T11:32:58.217Z,137.18
2024-02-08T11:34:16.851Z,122.55
2024-02-08T11:35:24.572Z,118.32
2024-02-08T11:36:36.125Z,120.40
2024-02-08T11:37:40.077Z,121.80
2024-02-08T11:38:48.507Z,123.53
2024-02-08T11:41:11.880Z,128.63
2024-02-08T11:42:18.637Z,100.30
2024-02-08T11:43:25.730Z,131.57
2024-02-08T11:44:37.969Z,120.85
2024-02-08T11:45:43.884Z,123.85
2024-02-08T11:46:48.097Z,120.22
2024-02-08T11:47:51.784Z,126.88
2024-02-08T11:48:55.403Z,126.55
2024-02-08T11:50:05.223Z,121.10
2024-02-08T11:51:13.013Z,124.30
2024-02-08T11:52:21.194Z,117.47
2024-02-08T11:53:34.692Z,115.38
2024-02-08T11:54:40.706Z,125.78
2024-02-08T11:55:46.639Z,119.35
2024-02-08T11:56:50.466Z,119.25
2024-02-08T11:57:55.213Z,131.30
2024-02-08T11:58:59.538Z,113.50
2024-02-08T12:00:16.927Z,121.80
2024-02-08T12:01:27.032Z,111.43
2024-02-08T12:02:29.340Z,109.32
2024-02-08T12:03:32.200Z,114.75
2024-02-08T12:05:39.535Z,113.78
2024-02-08T12:06:48.131Z,115.50
2024-02-08T12:07:50.299Z,107.20
2024-02-08T12:09:04.969Z,117.30
2024-02-08T12:10:11.198Z,111.57
2024-02-08T12:11:13.454Z,122.25
2024-02-08T12:12:15.782Z,119.75
2024-02-08T12:13:40.761Z,109.75
2024-02-08T12:14:43.400Z,108.13
2024-02-08T12:15:57.893Z,108.63
2024-02-08T12:17:00.753Z,102.13
2024-02-08T12:18:07.580Z,107.93
2024-02-08T12:19:16.766Z,106.63
2024-02-08T12:20:19.103Z,116.57
2024-02-08T12:21:24.852Z,116.35
2024-02-08T12:22:27.701Z,113.68
2024-02-08T12:23:33.731Z,117.05
2024-02-08T12:24:36.779Z,119.00
2024-02-08T12:25:44.542Z,117.82
2024-02-08T12:26:48.467Z,109.18
2024-02-08T12:27:59.165Z,104.28
2024-02-08T12:29:06.473Z,92.80
2024-02-08T12:30:09.790Z,99.45
2024-02-08T12:31:19.463Z,96.97
2024-02-08T12:33:30.798Z,91.50
2024-02-08T12:34:35.947Z,83.63
2024-02-08T12:35:43.010Z,81.93
2024-02-08T12:36:48.115Z,83.93
2024-02-08T12:37:50.765Z,90.72
2024-02-08T12:38:54.775Z,79.25
2024-02-08T12:39:57.601Z,76.95
2024-02-08T12:41:04.055Z,77.00
2024-02-08T12:42:06.560Z,82.65
2024-02-08T12:43:10.244Z,78.20
2024-02-08T12:44:16.643Z,83.03
2024-02-08T12:45:19.350Z,81.30
2024-02-08T12:46:22.004Z,85.50
2024-02-08T12:47:24.876Z,77.50
2024-02-08T12:49:36.583Z,88.60
2024-02-08T12:50:42.501Z,82.95
2024-02-08T12:51:44.841Z,85.68
2024-02-08T12:52:48.447Z,75.88
2024-02-08T12:54:03.698Z,79.13
2024-02-08T12:55:05.810Z,83.00
2024-02-08T12:56:13.187Z,74.80
2024-02-08T12:57:17.296Z,75.78
2024-02-08T12:58:20.283Z,76.63
2024-02-08T12:59:22.359Z,89.72
2024-02-08T13:00:24.770Z,75.47
2024-02-08T13:01:27.268Z,78.18
2024-02-08T13:02:35.019Z,70.90
2024-02-08T13:03:38.409Z,78.95
2024-02-08T13:04:47.797Z,73.97
2024-02-08T13:05:51.732Z,81.43
2024-02-08T13:06:56.317Z,72.85
2024-02-08T13:08:01.519Z,73.38
2024-02-08T13:09:27.689Z,78.03
2024-02-08T13:10:36.019Z,78.80
2024-02-08T13:11:40.167Z,74.72
2024-02-08T13:12:42.177Z,76.95
2024-02-08T13:13:44.495Z,73.25
2024-02-08T13:14:50.081Z,69.45
2024-02-08T13:16:02.874Z,77.18
2024-02-08T13:17:06.194Z,74.47
2024-02-08T13:18:11.568Z,73.70
2024-02-08T13:19:20.769Z,67.95
2024-02-08T13:20:25.482Z,69.28
2024-02-08T13:21:28.122Z,66.55
2024-02-08T13:22:33.300Z,74.60
2024-02-08T13:23:38.357Z,70.05
2024-02-08T13:24:40.382Z,65.80
2024-02-08T13:25:44.697Z,66.78
2024-02-08T13:26:51.742Z,83.20
2024-02-08T13:27:54.214Z,77.47
2024-02-08T13:28:58.894Z,68.68
2024-02-08T13:30:01.410Z,78.65
2024-02-08T13:31:09.965Z,79.95
2024-02-08T13:32:12.706Z,77.85
2024-02-08T13:33:15.303Z,74.30
2024-02-08T13:34:28.445Z,80.30
2024-02-08T13:35:31.517Z,77.95
2024-02-08T13:36:36.760Z,76.90
2024-02-08T13:37:38.861Z,71.55
2024-02-08T13:38:40.903Z,72.82
2024-02-08T13:39:44.103Z,82.28
2024-02-08T13:40:49.178Z,79.53
2024-02-08T13:41:52.845Z,74.38
2024-02-08T13:43:00.383Z,76.97
2024-02-08T13:44:03.704Z,73.78
2024-02-08T13:45:06.671Z,79.32
2024-02-08T13:47:18.237Z,76.78
2024-02-08T13:48:24.289Z,82.75
2024-02-08T13:49:26.945Z,77.13
2024-02-08T13:50:33.658Z,83.70
2024-02-08T13:51:36.089Z,75.10
2024-02-08T13:52:39.273Z,74.20
2024-02-08T13:53:43.065Z,70.25
2024-02-08T13:54:47.268Z,82.20
2024-02-08T13:55:56.010Z,76.43
2024-02-08T13:57:01.396Z,74.13
2024-02-08T13:58:08.682Z,74.22
2024-02-08T13:59:15.644Z,75.82
2024-02-08T14:00:22.883Z,68.55
2024-02-08T14:01:27.527Z,68.55
2024-02-08T14:02:30.539Z,70.68
2024-02-08T14:03:33.717Z,79.50
2024-02-08T14:04:35.855Z,74.43
2024-02-08T14:05:41.611Z,77.80
2024-02-08T14:06:44.349Z,80.35
2024-02-08T14:07:50.167Z,72.18
2024-02-08T14:08:55.735Z,82.45
2024-02-08T14:10:01.383Z,81.57
2024-02-08T14:11:10.812Z,78.70
2024-02-08T14:12:13.349Z,69.72
2024-02-08T14:13:20.484Z,79.53
2024-02-08T14:14:31.450Z,74.95
2024-02-08T14:15:35.166Z,71.53
2024-02-08T14:16:38.747Z,70.35
2024-02-08T14:17:42.611Z,72.78
2024-02-08T14:18:51.240Z,75.38
2024-02-08T14:19:56.228Z,73.13
2024-02-08T14:20:59.747Z,65.05
2024-02-08T14:22:08.040Z,68.25
2024-02-08T14:23:11.538Z,72.05
2024-02-08T14:24:15.861Z,66.53
2024-02-08T14:25:25.348Z,70.50
2024-02-08T14:26:42.849Z,77.82
2024-02-08T14:27:45.149Z,74.10
2024-02-08T14:28:50.777Z,70.85
2024-02-08T14:29:53.152Z,65.20
2024-02-08T14:30:55.181Z,74.85
2024-02-08T14:31:57.812Z,70.38
2024-02-08T14:32:59.873Z,67.65
2024-02-08T14:34:04.066Z,71.57
2024-02-08T14:35:18.086Z,68.05
2024-02-08T14:36:20.891Z,63.97